Airfield :
LOGIN :

Register | Disclaimer

   EN    FR    IT 

 










Legend :    VFR   Marginal VFR   IFR   Intensive IFR   Very Intensive IFR
Visi :
Ceiling :
>= 8 km
>= 3000ft
5 to 8 km
1000 to 3000 ft
1500m to 5 km
500 to 1000 ft
800 to 1500m
200 to 500 ft
< 800m
< 200 ft
Symbols :   Thunderstorms  Fog  Heavy snow  Heavy precipitations  Wind > 20 kt
SIGMETs :     Misc.  Thunderstorms  Icing  Turbulence  Mountain Waves  Volcanic Ashes







- Airport Elevation : 913 ft
- Download approach charts


LFSX - Luxeuil

CURRENT METAR :
  • 182100Z AUTO VRB02KT 9999 OVC037 04/01 Q1023

EXPIRED METARs :
  • 182030Z AUTO 00000KT 9999 OVC038 04/01 Q1023
  • 182000Z AUTO VRB02KT 9999 OVC038 04/01 Q1023
  • 181930Z AUTO VRB01KT 9999 OVC038 03/01 Q1023
  • 181900Z AUTO 00000KT 9999 OVC036 04/01 Q1024
  • 181830Z AUTO 00000KT 9999 OVC037 03/01 Q1024

TAF AMD TAF LFSX
Valid from the 18 at 17:00 until the 19 at 15:00 UTC


181630Z 1817/1915 23006KT 9999 BKN035
FM182230 22008KT 4500 -RASN BKN020
PROB30
TEMPO 1902/1908 2000 -SN SCT008 OVC012
FM191130 29007KT 9999 SCT025 BKN040
No reported NOTAMs for that airfield.
1 SIGMET reported for the Reims FIR (LFEE) :
 
Severe icing
LFEE SIGMET 1 VALID 182115/190100 LFPW
LFEE REIMS FIR/UIR SEV ICE OBS WI N4915 E00515 - N4930 E00600 - N4915 E00645 - N4900 E00615 FL080/220 MOV SE 20KT NC=



MET'MAP, your aeronautical weather chart ! - Copyright ORBIFLY December 2007 - Disclaimer

ORBIFLY MET'MAP TEAM :

Programming & Development : Alexandra Zaïnal
Concept & Development : Baudouin d'Aumeries
Co-Development & Prog : Marc-Olivier Méhu
Technical & hardware support : Manuel Goepfert

Contact : metmap@orbifly.com




SOURCES & CREDITS :

   NOAA